sensor_id;sensor_type;location;lat;lon;timestamp;P1;durP1;ratioP1;P2;durP2;ratioP2
45059;SDS011;30799;49.060;9.312;2022-07-29T00:01:50;2.42;;;1.80;;
45059;SDS011;30799;49.060;9.312;2022-07-29T00:04:18;1.67;;;1.52;;
45059;SDS011;30799;49.060;9.312;2022-07-29T00:06:46;1.83;;;1.70;;
45059;SDS011;30799;49.060;9.312;2022-07-29T00:09:13;1.77;;;1.63;;
45059;SDS011;30799;49.060;9.312;2022-07-29T00:11:40;4.38;;;1.90;;
45059;SDS011;30799;49.060;9.312;2022-07-29T00:14:06;2.17;;;1.90;;
45059;SDS011;30799;49.060;9.312;2022-07-29T00:16:35;1.65;;;1.40;;
45059;SDS011;30799;49.060;9.312;2022-07-29T00:19:02;3.05;;;1.92;;
45059;SDS011;30799;49.060;9.312;2022-07-29T00:21:29;2.40;;;1.60;;
45059;SDS011;30799;49.060;9.312;2022-07-29T00:23:56;2.30;;;1.83;;
45059;SDS011;30799;49.060;9.312;2022-07-29T00:26:22;1.75;;;1.65;;
45059;SDS011;30799;49.060;9.312;2022-07-29T00:28:49;1.88;;;1.67;;
45059;SDS011;30799;49.060;9.312;2022-07-29T00:31:16;1.75;;;1.65;;
45059;SDS011;30799;49.060;9.312;2022-07-29T00:33:42;2.25;;;1.90;;
45059;SDS011;30799;49.060;9.312;2022-07-29T00:36:09;2.25;;;1.70;;
45059;SDS011;30799;49.060;9.312;2022-07-29T00:38:36;1.88;;;1.65;;
45059;SDS011;30799;49.060;9.312;2022-07-29T00:41:02;2.17;;;1.70;;
45059;SDS011;30799;49.060;9.312;2022-07-29T00:43:29;2.97;;;1.70;;
45059;SDS011;30799;49.060;9.312;2022-07-29T00:45:55;3.28;;;1.90;;
45059;SDS011;30799;49.060;9.312;2022-07-29T00:48:22;2.20;;;1.90;;
45059;SDS011;30799;49.060;9.312;2022-07-29T00:50:49;1.70;;;1.60;;
45059;SDS011;30799;49.060;9.312;2022-07-29T00:53:16;1.50;;;1.40;;
45059;SDS011;30799;49.060;9.312;2022-07-29T00:55:42;1.95;;;1.73;;
45059;SDS011;30799;49.060;9.312;2022-07-29T00:58:10;1.73;;;1.63;;
45059;SDS011;30799;49.060;9.312;2022-07-29T01:00:41;2.08;;;1.60;;
45059;SDS011;30799;49.060;9.312;2022-07-29T01:03:10;1.92;;;1.60;;
45059;SDS011;30799;49.060;9.312;2022-07-29T01:05:37;1.77;;;1.63;;
45059;SDS011;30799;49.060;9.312;2022-07-29T01:08:16;2.20;;;2.00;;
45059;SDS011;30799;49.060;9.312;2022-07-29T01:10:44;1.75;;;1.40;;
45059;SDS011;30799;49.060;9.312;2022-07-29T01:13:13;1.90;;;1.70;;
45059;SDS011;30799;49.060;9.312;2022-07-29T01:15:43;2.13;;;1.50;;
45059;SDS011;30799;49.060;9.312;2022-07-29T01:18:28;2.13;;;1.75;;
45059;SDS011;30799;49.060;9.312;2022-07-29T01:26:45;2.10;;;1.70;;
45059;SDS011;30799;49.060;9.312;2022-07-29T01:29:32;1.90;;;1.70;;
45059;SDS011;30799;49.060;9.312;2022-07-29T01:32:08;2.35;;;1.63;;
45059;SDS011;30799;49.060;9.312;2022-07-29T01:37:38;1.80;;;1.52;;
45059;SDS011;30799;49.060;9.312;2022-07-29T01:40:08;1.73;;;1.63;;
45059;SDS011;30799;49.060;9.312;2022-07-29T01:42:43;1.60;;;1.50;;
45059;SDS011;30799;49.060;9.312;2022-07-29T01:45:15;3.50;;;1.30;;
45059;SDS011;30799;49.060;9.312;2022-07-29T01:50:38;1.70;;;1.60;;
45059;SDS011;30799;49.060;9.312;2022-07-29T01:53:12;1.63;;;1.52;;
45059;SDS011;30799;49.060;9.312;2022-07-29T01:55:46;3.10;;;1.60;;
45059;SDS011;30799;49.060;9.312;2022-07-29T01:58:14;1.75;;;1.65;;
45059;SDS011;30799;49.060;9.312;2022-07-29T02:00:45;1.90;;;1.75;;
45059;SDS011;30799;49.060;9.312;2022-07-29T02:03:12;2.67;;;1.95;;
45059;SDS011;30799;49.060;9.312;2022-07-29T02:05:42;1.60;;;1.50;;
45059;SDS011;30799;49.060;9.312;2022-07-29T02:08:12;1.92;;;1.77;;
45059;SDS011;30799;49.060;9.312;2022-07-29T02:10:41;2.25;;;1.80;;
45059;SDS011;30799;49.060;9.312;2022-07-29T02:13:09;2.00;;;1.70;;
45059;SDS011;30799;49.060;9.312;2022-07-29T02:15:38;1.73;;;1.48;;
45059;SDS011;30799;49.060;9.312;2022-07-29T02:18:08;1.48;;;1.38;;
45059;SDS011;30799;49.060;9.312;2022-07-29T02:20:39;1.48;;;1.38;;
45059;SDS011;30799;49.060;9.312;2022-07-29T02:23:07;1.60;;;1.50;;
45059;SDS011;30799;49.060;9.312;2022-07-29T02:25:37;2.75;;;1.50;;
45059;SDS011;30799;49.060;9.312;2022-07-29T02:28:05;2.15;;;1.60;;
45059;SDS011;30799;49.060;9.312;2022-07-29T02:30:33;1.98;;;1.75;;
45059;SDS011;30799;49.060;9.312;2022-07-29T02:33:05;2.75;;;1.60;;
45059;SDS011;30799;49.060;9.312;2022-07-29T02:35:32;2.08;;;1.88;;
45059;SDS011;30799;49.060;9.312;2022-07-29T02:38:00;1.30;;;1.20;;
45059;SDS011;30799;49.060;9.312;2022-07-29T02:40:48;1.52;;;1.42;;
45059;SDS011;30799;49.060;9.312;2022-07-29T02:43:17;2.13;;;1.60;;
45059;SDS011;30799;49.060;9.312;2022-07-29T02:45:45;1.77;;;1.65;;
45059;SDS011;30799;49.060;9.312;2022-07-29T02:48:17;2.08;;;1.55;;
45059;SDS011;30799;49.060;9.312;2022-07-29T02:50:52;1.63;;;1.52;;
45059;SDS011;30799;49.060;9.312;2022-07-29T02:53:27;2.00;;;1.80;;
45059;SDS011;30799;49.060;9.312;2022-07-29T02:55:59;1.77;;;1.67;;
45059;SDS011;30799;49.060;9.312;2022-07-29T02:58:45;1.40;;;1.30;;
45059;SDS011;30799;49.060;9.312;2022-07-29T03:01:16;1.50;;;1.40;;
45059;SDS011;30799;49.060;9.312;2022-07-29T03:03:50;1.60;;;1.50;;
45059;SDS011;30799;49.060;9.312;2022-07-29T03:06:20;2.13;;;1.73;;
45059;SDS011;30799;49.060;9.312;2022-07-29T03:09:04;1.83;;;1.65;;
45059;SDS011;30799;49.060;9.312;2022-07-29T03:11:38;1.95;;;1.75;;
45059;SDS011;30799;49.060;9.312;2022-07-29T03:14:15;1.60;;;1.50;;
45059;SDS011;30799;49.060;9.312;2022-07-29T03:16:46;2.10;;;1.80;;
45059;SDS011;30799;49.060;9.312;2022-07-29T03:19:13;1.98;;;1.50;;
45059;SDS011;30799;49.060;9.312;2022-07-29T03:21:39;1.48;;;1.38;;
45059;SDS011;30799;49.060;9.312;2022-07-29T03:24:06;2.15;;;1.98;;
45059;SDS011;30799;49.060;9.312;2022-07-29T03:26:38;1.67;;;1.58;;
45059;SDS011;30799;49.060;9.312;2022-07-29T03:29:04;1.40;;;1.30;;
45059;SDS011;30799;49.060;9.312;2022-07-29T03:31:32;1.70;;;1.60;;
45059;SDS011;30799;49.060;9.312;2022-07-29T03:33:59;1.90;;;1.63;;
45059;SDS011;30799;49.060;9.312;2022-07-29T03:36:26;1.80;;;1.65;;
45059;SDS011;30799;49.060;9.312;2022-07-29T03:38:52;2.25;;;1.83;;
45059;SDS011;30799;49.060;9.312;2022-07-29T03:41:20;1.63;;;1.50;;
45059;SDS011;30799;49.060;9.312;2022-07-29T03:43:49;2.03;;;1.67;;
45059;SDS011;30799;49.060;9.312;2022-07-29T03:46:20;2.15;;;1.60;;
45059;SDS011;30799;49.060;9.312;2022-07-29T03:48:52;1.55;;;1.45;;
45059;SDS011;30799;49.060;9.312;2022-07-29T03:51:24;1.60;;;1.50;;
45059;SDS011;30799;49.060;9.312;2022-07-29T03:53:59;1.50;;;1.40;;
45059;SDS011;30799;49.060;9.312;2022-07-29T03:56:37;1.52;;;1.30;;
45059;SDS011;30799;49.060;9.312;2022-07-29T03:59:06;1.63;;;1.52;;
45059;SDS011;30799;49.060;9.312;2022-07-29T04:01:33;1.60;;;1.50;;
45059;SDS011;30799;49.060;9.312;2022-07-29T04:04:01;1.85;;;1.63;;
45059;SDS011;30799;49.060;9.312;2022-07-29T04:06:28;1.63;;;1.52;;
45059;SDS011;30799;49.060;9.312;2022-07-29T04:08:55;1.80;;;1.50;;
45059;SDS011;30799;49.060;9.312;2022-07-29T04:11:21;1.60;;;1.50;;
45059;SDS011;30799;49.060;9.312;2022-07-29T04:13:48;1.67;;;1.58;;
45059;SDS011;30799;49.060;9.312;2022-07-29T04:16:15;1.67;;;1.58;;
45059;SDS011;30799;49.060;9.312;2022-07-29T04:18:41;1.70;;;1.60;;
45059;SDS011;30799;49.060;9.312;2022-07-29T04:21:08;1.63;;;1.40;;
45059;SDS011;30799;49.060;9.312;2022-07-29T04:23:35;1.50;;;1.40;;
45059;SDS011;30799;49.060;9.312;2022-07-29T04:26:18;1.60;;;1.50;;
45059;SDS011;30799;49.060;9.312;2022-07-29T04:28:45;1.55;;;1.45;;
45059;SDS011;30799;49.060;9.312;2022-07-29T04:31:12;1.60;;;1.50;;
45059;SDS011;30799;49.060;9.312;2022-07-29T04:33:39;1.23;;;1.15;;
45059;SDS011;30799;49.060;9.312;2022-07-29T04:36:06;1.70;;;1.60;;
45059;SDS011;30799;49.060;9.312;2022-07-29T04:38:53;1.50;;;1.40;;
45059;SDS011;30799;49.060;9.312;2022-07-29T04:41:19;1.50;;;1.40;;
45059;SDS011;30799;49.060;9.312;2022-07-29T04:43:47;1.63;;;1.52;;
45059;SDS011;30799;49.060;9.312;2022-07-29T04:46:13;1.45;;;1.35;;
45059;SDS011;30799;49.060;9.312;2022-07-29T04:48:40;1.60;;;1.50;;
45059;SDS011;30799;49.060;9.312;2022-07-29T04:51:07;1.52;;;1.42;;
45059;SDS011;30799;49.060;9.312;2022-07-29T04:53:33;1.40;;;1.30;;
45059;SDS011;30799;49.060;9.312;2022-07-29T04:56:00;2.65;;;1.60;;
45059;SDS011;30799;49.060;9.312;2022-07-29T04:58:27;1.85;;;1.50;;
45059;SDS011;30799;49.060;9.312;2022-07-29T05:00:53;1.50;;;1.40;;
45059;SDS011;30799;49.060;9.312;2022-07-29T05:03:20;1.50;;;1.40;;
45059;SDS011;30799;49.060;9.312;2022-07-29T05:05:47;1.70;;;1.60;;
45059;SDS011;30799;49.060;9.312;2022-07-29T05:08:14;4.20;;;3.20;;
45059;SDS011;30799;49.060;9.312;2022-07-29T05:10:40;6.05;;;3.65;;
45059;SDS011;30799;49.060;9.312;2022-07-29T05:13:07;4.47;;;3.75;;
45059;SDS011;30799;49.060;9.312;2022-07-29T05:15:34;4.15;;;3.33;;
45059;SDS011;30799;49.060;9.312;2022-07-29T05:18:01;4.78;;;3.90;;
45059;SDS011;30799;49.060;9.312;2022-07-29T05:20:29;3.60;;;3.30;;
45059;SDS011;30799;49.060;9.312;2022-07-29T05:22:57;7.32;;;3.80;;
45059;SDS011;30799;49.060;9.312;2022-07-29T05:25:25;4.53;;;3.60;;
45059;SDS011;30799;49.060;9.312;2022-07-29T05:28:09;6.70;;;3.95;;
45059;SDS011;30799;49.060;9.312;2022-07-29T05:30:36;6.03;;;3.50;;
45059;SDS011;30799;49.060;9.312;2022-07-29T05:33:03;10.20;;;4.32;;
45059;SDS011;30799;49.060;9.312;2022-07-29T05:35:30;6.32;;;3.70;;
45059;SDS011;30799;49.060;9.312;2022-07-29T05:37:56;4.85;;;3.70;;
45059;SDS011;30799;49.060;9.312;2022-07-29T05:40:23;3.78;;;3.35;;
45059;SDS011;30799;49.060;9.312;2022-07-29T05:42:50;3.40;;;3.10;;
45059;SDS011;30799;49.060;9.312;2022-07-29T05:45:16;4.18;;;3.50;;
45059;SDS011;30799;49.060;9.312;2022-07-29T05:47:43;6.05;;;3.40;;
45059;SDS011;30799;49.060;9.312;2022-07-29T05:50:09;9.50;;;3.50;;
45059;SDS011;30799;49.060;9.312;2022-07-29T05:52:36;5.45;;;3.05;;
45059;SDS011;30799;49.060;9.312;2022-07-29T05:55:03;6.47;;;3.17;;
45059;SDS011;30799;49.060;9.312;2022-07-29T05:57:31;3.97;;;3.08;;
45059;SDS011;30799;49.060;9.312;2022-07-29T05:59:58;3.60;;;3.30;;
45059;SDS011;30799;49.060;9.312;2022-07-29T06:02:25;4.60;;;3.08;;
45059;SDS011;30799;49.060;9.312;2022-07-29T06:04:51;4.30;;;3.30;;
45059;SDS011;30799;49.060;9.312;2022-07-29T06:07:18;4.25;;;3.30;;
45059;SDS011;30799;49.060;9.312;2022-07-29T06:09:45;6.78;;;3.15;;
45059;SDS011;30799;49.060;9.312;2022-07-29T06:12:12;4.80;;;3.33;;
45059;SDS011;30799;49.060;9.312;2022-07-29T06:14:38;3.53;;;2.90;;
45059;SDS011;30799;49.060;9.312;2022-07-29T06:17:05;5.38;;;2.97;;
45059;SDS011;30799;49.060;9.312;2022-07-29T06:19:33;4.85;;;2.72;;
45059;SDS011;30799;49.060;9.312;2022-07-29T06:22:02;5.30;;;3.22;;
45059;SDS011;30799;49.060;9.312;2022-07-29T06:24:29;4.82;;;2.83;;
45059;SDS011;30799;49.060;9.312;2022-07-29T06:26:55;4.97;;;3.10;;
45059;SDS011;30799;49.060;9.312;2022-07-29T06:29:22;3.22;;;2.92;;
45059;SDS011;30799;49.060;9.312;2022-07-29T06:31:49;3.42;;;2.78;;
45059;SDS011;30799;49.060;9.312;2022-07-29T06:34:16;3.08;;;2.75;;
45059;SDS011;30799;49.060;9.312;2022-07-29T06:36:43;2.80;;;2.60;;
45059;SDS011;30799;49.060;9.312;2022-07-29T06:39:11;2.88;;;2.58;;
45059;SDS011;30799;49.060;9.312;2022-07-29T06:41:38;3.45;;;2.80;;
45059;SDS011;30799;49.060;9.312;2022-07-29T06:44:04;2.97;;;2.60;;
45059;SDS011;30799;49.060;9.312;2022-07-29T06:46:31;3.35;;;2.63;;
45059;SDS011;30799;49.060;9.312;2022-07-29T06:48:58;2.92;;;2.55;;
45059;SDS011;30799;49.060;9.312;2022-07-29T06:51:27;5.20;;;2.72;;
45059;SDS011;30799;49.060;9.312;2022-07-29T06:53:54;3.03;;;2.72;;
45059;SDS011;30799;49.060;9.312;2022-07-29T06:56:28;5.03;;;2.78;;
45059;SDS011;30799;49.060;9.312;2022-07-29T06:59:05;3.80;;;2.63;;
45059;SDS011;30799;49.060;9.312;2022-07-29T07:01:33;3.72;;;2.80;;
45059;SDS011;30799;49.060;9.312;2022-07-29T07:03:59;3.58;;;2.50;;
45059;SDS011;30799;49.060;9.312;2022-07-29T07:06:26;3.05;;;2.75;;
45059;SDS011;30799;49.060;9.312;2022-07-29T07:08:53;4.05;;;2.65;;
45059;SDS011;30799;49.060;9.312;2022-07-29T07:11:20;2.70;;;2.50;;
45059;SDS011;30799;49.060;9.312;2022-07-29T07:13:46;2.78;;;2.53;;
45059;SDS011;30799;49.060;9.312;2022-07-29T07:16:13;2.90;;;2.28;;
45059;SDS011;30799;49.060;9.312;2022-07-29T07:18:40;3.08;;;2.70;;
45059;SDS011;30799;49.060;9.312;2022-07-29T07:21:06;2.45;;;2.20;;
45059;SDS011;30799;49.060;9.312;2022-07-29T07:23:33;3.00;;;2.70;;
45059;SDS011;30799;49.060;9.312;2022-07-29T07:26:00;3.10;;;2.47;;
45059;SDS011;30799;49.060;9.312;2022-07-29T07:28:26;2.60;;;2.38;;
45059;SDS011;30799;49.060;9.312;2022-07-29T07:30:53;2.60;;;2.40;;
45059;SDS011;30799;49.060;9.312;2022-07-29T07:33:20;3.17;;;2.50;;
45059;SDS011;30799;49.060;9.312;2022-07-29T07:35:46;2.25;;;2.05;;
45059;SDS011;30799;49.060;9.312;2022-07-29T07:38:13;2.83;;;2.22;;
45059;SDS011;30799;49.060;9.312;2022-07-29T07:40:40;2.95;;;2.65;;
45059;SDS011;30799;49.060;9.312;2022-07-29T07:43:07;2.72;;;2.22;;
45059;SDS011;30799;49.060;9.312;2022-07-29T07:45:33;2.30;;;2.10;;
45059;SDS011;30799;49.060;9.312;2022-07-29T07:48:03;2.35;;;2.15;;
45059;SDS011;30799;49.060;9.312;2022-07-29T07:50:30;4.35;;;2.63;;
45059;SDS011;30799;49.060;9.312;2022-07-29T07:52:57;3.15;;;2.38;;
45059;SDS011;30799;49.060;9.312;2022-07-29T07:55:24;3.05;;;2.75;;
45059;SDS011;30799;49.060;9.312;2022-07-29T07:57:51;4.30;;;2.60;;
45059;SDS011;30799;49.060;9.312;2022-07-29T08:00:18;2.50;;;2.30;;
45059;SDS011;30799;49.060;9.312;2022-07-29T08:02:48;2.47;;;2.28;;
45059;SDS011;30799;49.060;9.312;2022-07-29T08:05:16;3.28;;;2.50;;
45059;SDS011;30799;49.060;9.312;2022-07-29T08:07:44;2.78;;;2.42;;
45059;SDS011;30799;49.060;9.312;2022-07-29T08:10:12;3.50;;;2.38;;
45059;SDS011;30799;49.060;9.312;2022-07-29T08:13:02;2.15;;;1.95;;
45059;SDS011;30799;49.060;9.312;2022-07-29T08:15:33;2.45;;;2.25;;
45059;SDS011;30799;49.060;9.312;2022-07-29T08:17:59;2.58;;;2.38;;
45059;SDS011;30799;49.060;9.312;2022-07-29T08:20:33;2.88;;;2.20;;
45059;SDS011;30799;49.060;9.312;2022-07-29T08:23:01;4.43;;;2.35;;
45059;SDS011;30799;49.060;9.312;2022-07-29T08:25:29;2.63;;;2.40;;
45059;SDS011;30799;49.060;9.312;2022-07-29T08:27:55;2.80;;;2.40;;
45059;SDS011;30799;49.060;9.312;2022-07-29T08:30:22;2.25;;;2.05;;
45059;SDS011;30799;49.060;9.312;2022-07-29T08:32:49;3.13;;;2.28;;
45059;SDS011;30799;49.060;9.312;2022-07-29T08:35:20;2.33;;;2.13;;
45059;SDS011;30799;49.060;9.312;2022-07-29T08:37:48;2.38;;;2.10;;
45059;SDS011;30799;49.060;9.312;2022-07-29T08:40:15;2.55;;;2.35;;
45059;SDS011;30799;49.060;9.312;2022-07-29T08:42:41;2.83;;;2.33;;
45059;SDS011;30799;49.060;9.312;2022-07-29T08:45:08;2.30;;;2.10;;
45059;SDS011;30799;49.060;9.312;2022-07-29T08:47:35;2.40;;;2.20;;
45059;SDS011;30799;49.060;9.312;2022-07-29T08:50:06;2.60;;;2.08;;
45059;SDS011;30799;49.060;9.312;2022-07-29T08:52:35;2.22;;;2.08;;
45059;SDS011;30799;49.060;9.312;2022-07-29T08:55:04;3.22;;;2.10;;
45059;SDS011;30799;49.060;9.312;2022-07-29T08:57:35;2.22;;;2.10;;
45059;SDS011;30799;49.060;9.312;2022-07-29T09:00:04;3.03;;;2.25;;
45059;SDS011;30799;49.060;9.312;2022-07-29T09:02:39;2.33;;;2.13;;
45059;SDS011;30799;49.060;9.312;2022-07-29T09:05:07;2.20;;;2.00;;
45059;SDS011;30799;49.060;9.312;2022-07-29T09:07:36;2.80;;;2.50;;
45059;SDS011;30799;49.060;9.312;2022-07-29T09:10:05;2.20;;;2.00;;
45059;SDS011;30799;49.060;9.312;2022-07-29T09:12:32;3.22;;;2.10;;
45059;SDS011;30799;49.060;9.312;2022-07-29T09:15:03;3.53;;;2.20;;
45059;SDS011;30799;49.060;9.312;2022-07-29T09:17:40;3.20;;;2.10;;
45059;SDS011;30799;49.060;9.312;2022-07-29T09:20:12;2.22;;;2.03;;
45059;SDS011;30799;49.060;9.312;2022-07-29T09:22:46;2.35;;;2.05;;
45059;SDS011;30799;49.060;9.312;2022-07-29T09:28:08;1.80;;;1.70;;
45059;SDS011;30799;49.060;9.312;2022-07-29T09:30:51;2.20;;;1.98;;
45059;SDS011;30799;49.060;9.312;2022-07-29T09:33:22;2.13;;;2.03;;
45059;SDS011;30799;49.060;9.312;2022-07-29T09:35:59;2.05;;;1.95;;
45059;SDS011;30799;49.060;9.312;2022-07-29T09:38:31;2.42;;;1.80;;
45059;SDS011;30799;49.060;9.312;2022-07-29T09:40:59;2.55;;;1.98;;
45059;SDS011;30799;49.060;9.312;2022-07-29T09:43:32;2.03;;;1.90;;
45059;SDS011;30799;49.060;9.312;2022-07-29T09:46:09;2.08;;;1.90;;
45059;SDS011;30799;49.060;9.312;2022-07-29T09:48:39;2.17;;;1.98;;
45059;SDS011;30799;49.060;9.312;2022-07-29T09:51:16;2.38;;;2.17;;
45059;SDS011;30799;49.060;9.312;2022-07-29T09:53:48;3.72;;;2.13;;
45059;SDS011;30799;49.060;9.312;2022-07-29T09:56:18;2.33;;;2.13;;
45059;SDS011;30799;49.060;9.312;2022-07-29T09:58:44;2.83;;;2.03;;
45059;SDS011;30799;49.060;9.312;2022-07-29T10:01:11;2.08;;;1.88;;
45059;SDS011;30799;49.060;9.312;2022-07-29T10:03:59;2.13;;;1.95;;
45059;SDS011;30799;49.060;9.312;2022-07-29T10:06:25;2.33;;;1.90;;
45059;SDS011;30799;49.060;9.312;2022-07-29T10:08:52;2.95;;;2.00;;
45059;SDS011;30799;49.060;9.312;2022-07-29T10:11:19;2.28;;;2.08;;
45059;SDS011;30799;49.060;9.312;2022-07-29T10:13:47;1.83;;;1.70;;
45059;SDS011;30799;49.060;9.312;2022-07-29T10:16:15;2.35;;;1.90;;
45059;SDS011;30799;49.060;9.312;2022-07-29T10:18:42;1.73;;;1.63;;
45059;SDS011;30799;49.060;9.312;2022-07-29T10:21:10;1.80;;;1.70;;
45059;SDS011;30799;49.060;9.312;2022-07-29T10:23:57;1.98;;;1.88;;
45059;SDS011;30799;49.060;9.312;2022-07-29T10:26:26;2.10;;;1.90;;
45059;SDS011;30799;49.060;9.312;2022-07-29T10:28:54;1.92;;;1.83;;
45059;SDS011;30799;49.060;9.312;2022-07-29T10:31:24;2.13;;;1.98;;
45059;SDS011;30799;49.060;9.312;2022-07-29T10:34:13;2.40;;;2.10;;
45059;SDS011;30799;49.060;9.312;2022-07-29T10:37:28;2.55;;;1.73;;
45059;SDS011;30799;49.060;9.312;2022-07-29T10:43:24;1.92;;;1.75;;
45059;SDS011;30799;49.060;9.312;2022-07-29T10:45:57;1.63;;;1.52;;
45059;SDS011;30799;49.060;9.312;2022-07-29T10:48:26;2.20;;;2.00;;
45059;SDS011;30799;49.060;9.312;2022-07-29T10:50:53;2.28;;;1.95;;
45059;SDS011;30799;49.060;9.312;2022-07-29T10:56:22;2.25;;;1.88;;
45059;SDS011;30799;49.060;9.312;2022-07-29T11:01:49;2.05;;;1.85;;
45059;SDS011;30799;49.060;9.312;2022-07-29T11:07:12;1.73;;;1.63;;
45059;SDS011;30799;49.060;9.312;2022-07-29T11:09:40;1.83;;;1.73;;
45059;SDS011;30799;49.060;9.312;2022-07-29T11:12:51;1.83;;;1.73;;
45059;SDS011;30799;49.060;9.312;2022-07-29T11:15:05;1.77;;;1.67;;
45059;SDS011;30799;49.060;9.312;2022-07-29T11:20:36;1.70;;;1.60;;
45059;SDS011;30799;49.060;9.312;2022-07-29T11:23:17;1.83;;;1.73;;
45059;SDS011;30799;49.060;9.312;2022-07-29T11:34:20;1.90;;;1.80;;
45059;SDS011;30799;49.060;9.312;2022-07-29T11:39:43;2.10;;;1.90;;
45059;SDS011;30799;49.060;9.312;2022-07-29T11:47:53;1.65;;;1.55;;
45059;SDS011;30799;49.060;9.312;2022-07-29T11:50:44;2.42;;;1.70;;
45059;SDS011;30799;49.060;9.312;2022-07-29T11:53:13;1.77;;;1.67;;
45059;SDS011;30799;49.060;9.312;2022-07-29T11:55:41;1.80;;;1.70;;
45059;SDS011;30799;49.060;9.312;2022-07-29T11:58:20;1.83;;;1.70;;
45059;SDS011;30799;49.060;9.312;2022-07-29T12:01:08;1.90;;;1.80;;
45059;SDS011;30799;49.060;9.312;2022-07-29T12:03:43;1.80;;;1.70;;
45059;SDS011;30799;49.060;9.312;2022-07-29T12:06:13;1.88;;;1.77;;
45059;SDS011;30799;49.060;9.312;2022-07-29T12:08:43;2.75;;;1.83;;
45059;SDS011;30799;49.060;9.312;2022-07-29T12:11:17;1.77;;;1.65;;
45059;SDS011;30799;49.060;9.312;2022-07-29T12:13:48;1.63;;;1.52;;
45059;SDS011;30799;49.060;9.312;2022-07-29T12:16:19;1.77;;;1.67;;
45059;SDS011;30799;49.060;9.312;2022-07-29T12:18:58;1.80;;;1.70;;
45059;SDS011;30799;49.060;9.312;2022-07-29T12:21:27;1.70;;;1.60;;
45059;SDS011;30799;49.060;9.312;2022-07-29T12:23:56;1.73;;;1.50;;
45059;SDS011;30799;49.060;9.312;2022-07-29T12:26:34;2.03;;;1.73;;
45059;SDS011;30799;49.060;9.312;2022-07-29T12:29:01;1.95;;;1.83;;
45059;SDS011;30799;49.060;9.312;2022-07-29T12:31:28;1.77;;;1.67;;
45059;SDS011;30799;49.060;9.312;2022-07-29T12:34:13;1.90;;;1.80;;
45059;SDS011;30799;49.060;9.312;2022-07-29T12:36:41;1.55;;;1.45;;
45059;SDS011;30799;49.060;9.312;2022-07-29T12:39:09;1.80;;;1.70;;
45059;SDS011;30799;49.060;9.312;2022-07-29T12:41:37;1.90;;;1.67;;
45059;SDS011;30799;49.060;9.312;2022-07-29T12:44:05;1.80;;;1.70;;
45059;SDS011;30799;49.060;9.312;2022-07-29T12:46:31;1.83;;;1.73;;
45059;SDS011;30799;49.060;9.312;2022-07-29T12:48:58;1.77;;;1.55;;
45059;SDS011;30799;49.060;9.312;2022-07-29T12:51:32;1.65;;;1.52;;
45059;SDS011;30799;49.060;9.312;2022-07-29T12:54:09;2.13;;;1.85;;
45059;SDS011;30799;49.060;9.312;2022-07-29T12:56:37;1.63;;;1.52;;
45059;SDS011;30799;49.060;9.312;2022-07-29T12:59:13;1.70;;;1.60;;
45059;SDS011;30799;49.060;9.312;2022-07-29T13:01:45;1.70;;;1.60;;
45059;SDS011;30799;49.060;9.312;2022-07-29T13:04:31;1.73;;;1.63;;
45059;SDS011;30799;49.060;9.312;2022-07-29T13:07:05;1.60;;;1.50;;
45059;SDS011;30799;49.060;9.312;2022-07-29T13:12:06;1.80;;;1.70;;
45059;SDS011;30799;49.060;9.312;2022-07-29T13:14:41;1.83;;;1.73;;
45059;SDS011;30799;49.060;9.312;2022-07-29T13:17:10;1.52;;;1.42;;
45059;SDS011;30799;49.060;9.312;2022-07-29T13:19:40;2.35;;;1.75;;
45059;SDS011;30799;49.060;9.312;2022-07-29T13:22:29;1.65;;;1.55;;
45059;SDS011;30799;49.060;9.312;2022-07-29T13:24:57;1.60;;;1.50;;
45059;SDS011;30799;49.060;9.312;2022-07-29T13:27:25;1.88;;;1.70;;
45059;SDS011;30799;49.060;9.312;2022-07-29T13:29:54;1.80;;;1.70;;
45059;SDS011;30799;49.060;9.312;2022-07-29T13:32:23;1.50;;;1.40;;
45059;SDS011;30799;49.060;9.312;2022-07-29T13:34:53;1.73;;;1.63;;
45059;SDS011;30799;49.060;9.312;2022-07-29T13:37:24;1.58;;;1.48;;
45059;SDS011;30799;49.060;9.312;2022-07-29T13:39:51;1.50;;;1.40;;
45059;SDS011;30799;49.060;9.312;2022-07-29T13:42:20;1.70;;;1.60;;
45059;SDS011;30799;49.060;9.312;2022-07-29T13:44:46;1.60;;;1.50;;
45059;SDS011;30799;49.060;9.312;2022-07-29T13:47:14;1.70;;;1.60;;
45059;SDS011;30799;49.060;9.312;2022-07-29T13:49:42;1.70;;;1.60;;
45059;SDS011;30799;49.060;9.312;2022-07-29T13:52:09;1.50;;;1.40;;
45059;SDS011;30799;49.060;9.312;2022-07-29T13:54:35;1.80;;;1.70;;
45059;SDS011;30799;49.060;9.312;2022-07-29T13:57:07;1.30;;;1.30;;
45059;SDS011;30799;49.060;9.312;2022-07-29T13:59:36;1.67;;;1.58;;
45059;SDS011;30799;49.060;9.312;2022-07-29T14:02:03;1.60;;;1.50;;
45059;SDS011;30799;49.060;9.312;2022-07-29T14:04:31;1.50;;;1.40;;
45059;SDS011;30799;49.060;9.312;2022-07-29T14:06:58;1.60;;;1.50;;
45059;SDS011;30799;49.060;9.312;2022-07-29T14:09:29;1.60;;;1.50;;
45059;SDS011;30799;49.060;9.312;2022-07-29T14:12:06;1.83;;;1.73;;
45059;SDS011;30799;49.060;9.312;2022-07-29T14:14:33;1.40;;;1.30;;
45059;SDS011;30799;49.060;9.312;2022-07-29T14:17:01;1.50;;;1.40;;
45059;SDS011;30799;49.060;9.312;2022-07-29T14:19:29;1.70;;;1.60;;
45059;SDS011;30799;49.060;9.312;2022-07-29T14:21:57;1.63;;;1.52;;
45059;SDS011;30799;49.060;9.312;2022-07-29T14:24:25;1.50;;;1.40;;
45059;SDS011;30799;49.060;9.312;2022-07-29T14:26:52;1.75;;;1.60;;
45059;SDS011;30799;49.060;9.312;2022-07-29T14:29:19;1.80;;;1.70;;
45059;SDS011;30799;49.060;9.312;2022-07-29T14:31:45;1.80;;;1.70;;
45059;SDS011;30799;49.060;9.312;2022-07-29T14:34:12;1.30;;;1.20;;
45059;SDS011;30799;49.060;9.312;2022-07-29T14:36:39;1.63;;;1.52;;
45059;SDS011;30799;49.060;9.312;2022-07-29T14:39:05;1.70;;;1.60;;
45059;SDS011;30799;49.060;9.312;2022-07-29T14:41:32;1.67;;;1.58;;
45059;SDS011;30799;49.060;9.312;2022-07-29T14:43:59;1.63;;;1.52;;
45059;SDS011;30799;49.060;9.312;2022-07-29T14:46:27;1.60;;;1.50;;
45059;SDS011;30799;49.060;9.312;2022-07-29T14:48:54;1.40;;;1.30;;
45059;SDS011;30799;49.060;9.312;2022-07-29T14:51:20;1.50;;;1.40;;
45059;SDS011;30799;49.060;9.312;2022-07-29T14:53:47;1.50;;;1.40;;
45059;SDS011;30799;49.060;9.312;2022-07-29T14:56:14;1.50;;;1.40;;
45059;SDS011;30799;49.060;9.312;2022-07-29T14:59:00;1.50;;;1.40;;
45059;SDS011;30799;49.060;9.312;2022-07-29T15:01:27;1.45;;;1.35;;
45059;SDS011;30799;49.060;9.312;2022-07-29T15:03:54;2.08;;;1.40;;
45059;SDS011;30799;49.060;9.312;2022-07-29T15:06:25;1.52;;;1.42;;
45059;SDS011;30799;49.060;9.312;2022-07-29T15:08:52;1.50;;;1.40;;
45059;SDS011;30799;49.060;9.312;2022-07-29T15:11:18;1.67;;;1.58;;
45059;SDS011;30799;49.060;9.312;2022-07-29T15:13:45;1.40;;;1.30;;
45059;SDS011;30799;49.060;9.312;2022-07-29T15:16:12;1.70;;;1.60;;
45059;SDS011;30799;49.060;9.312;2022-07-29T15:18:38;1.73;;;1.63;;
45059;SDS011;30799;49.060;9.312;2022-07-29T15:21:05;1.52;;;1.42;;
45059;SDS011;30799;49.060;9.312;2022-07-29T15:23:33;1.33;;;1.30;;
45059;SDS011;30799;49.060;9.312;2022-07-29T15:26:02;1.60;;;1.50;;
45059;SDS011;30799;49.060;9.312;2022-07-29T15:28:30;1.27;;;1.17;;
45059;SDS011;30799;49.060;9.312;2022-07-29T15:30:56;1.60;;;1.50;;
45059;SDS011;30799;49.060;9.312;2022-07-29T15:33:23;2.88;;;1.70;;
45059;SDS011;30799;49.060;9.312;2022-07-29T15:35:50;6.88;;;1.70;;
45059;SDS011;30799;49.060;9.312;2022-07-29T15:38:17;6.55;;;2.10;;
45059;SDS011;30799;49.060;9.312;2022-07-29T15:40:43;4.15;;;1.77;;
45059;SDS011;30799;49.060;9.312;2022-07-29T15:43:11;5.72;;;2.10;;
45059;SDS011;30799;49.060;9.312;2022-07-29T15:45:42;5.35;;;2.08;;
45059;SDS011;30799;49.060;9.312;2022-07-29T15:48:31;3.30;;;1.60;;
45059;SDS011;30799;49.060;9.312;2022-07-29T15:50:58;3.08;;;1.83;;
45059;SDS011;30799;49.060;9.312;2022-07-29T15:53:26;4.13;;;2.17;;